Terminal Aerodrome Forecast
Issued by NWS Shreveport, LA

Home | Current Version | Previous Version | Text Only | Print | Product List | Glossary On
Versions: 1 2 3 4 5 6 7 8 9 10 11 12 13 14
000
FTUS44 KSHV 071720
TAFELD
TAF
KELD 071720Z 0718/0818 18012KT P6SM SCT035 SCT250
     FM080000 17006KT P6SM SCT050 SCT250
      TEMPO 0812/0814 BKN008
     FM081400 17010KT P6SM BKN015
     FM081600 19012KT P6SM SCT035 SCT250=

USA.gov is the U.S. government's official web portal to all federal, state and local government web resources and services.